Handytankers Glory — C6WH4 — position and weather

sailwx.info

Track history (hours):
 
Tides and Currents Weather Stations Pressure Air Temp Water Temp Dewpoint Dewpoint Depression Visibility Wind Speed Wind Dir Waves Ship Positions

Handytankers Glory

Last reported at 2018-Apr-26 00:00 UTC. Time now 2018-Apr-26 00:20 UTC.
Position N 36°25' E 014°00'.

Length 171 m; draft 7.2 m.

Type: Tanker. MMSI: 309553000.

Date/timePositionNaut miles runAvg speedWind from/ knotsBaromVisibWave heightAir tempDewpointWater temp
2018-Apr-26 00:00N 36°25' E 014°00'4 8.1
2018-Apr-25 23:30N 36°23' E 014°05'4 8.2
2018-Apr-25 23:00N 36°22' E 014°09'4 8.0
2018-Apr-25 22:31N 36°20' E 014°14'4 8.1
2018-Apr-25 22:00N 36°18' E 014°18'4 8.2
2018-Apr-25 21:31N 36°17' E 014°23'4 8.2
2018-Apr-25 21:01N 36°15' E 014°28'4 8.0
2018-Apr-25 20:31N 36°13' E 014°32'4 8.1
2018-Apr-25 20:00N 36°10' E 014°35'4 7.9
2018-Apr-25 19:30N 36°07' E 014°39'4 8.0
2018-Apr-25 19:00N 36°04' E 014°42'4 7.8
2018-Apr-25 18:30N 36°01' E 014°46'4 7.7
2018-Apr-25 17:58N 35°58' E 014°48'1 2.1
2018-Apr-25 17:28N 35°57' E 014°49'0 0.1
2018-Apr-25 16:58N 35°57' E 014°49'0 0.0
2018-Apr-25 16:28N 35°57' E 014°49'0 0.0
2018-Apr-25 15:58N 35°57' E 014°49'0 0.0
2018-Apr-25 15:28N 35°57' E 014°49'0 0.0
2018-Apr-25 14:37N 35°57' E 014°49'0 0.0
2018-Apr-25 13:58N 35°57' E 014°49'0 0.1
2018-Apr-25 13:28N 35°57' E 014°49'0 0.0
2018-Apr-25 12:58N 35°57' E 014°49'0 0.0
2018-Apr-25 12:28N 35°57' E 014°49'0 0.0
2018-Apr-25 11:58N 35°57' E 014°49'0 0.0
2018-Apr-25 11:28N 35°57' E 014°49'0 0.0
2018-Apr-25 10:58N 35°57' E 014°49'0 0.0
2018-Apr-25 10:16N 35°57' E 014°49'0 0.0
2018-Apr-25 09:58N 35°57' E 014°49'0 0.0
2018-Apr-25 09:28N 35°57' E 014°49'0 0.0
2018-Apr-25 08:58N 35°57' E 014°49'0 0.0
2018-Apr-25 08:28N 35°57' E 014°49'0 0.0
2018-Apr-25 07:58N 35°57' E 014°49'0 0.0
2018-Apr-25 07:28N 35°57' E 014°49'0 0.1
2018-Apr-25 06:58N 35°57' E 014°49'0 0.1
2018-Apr-25 06:28N 35°57' E 014°49'0 0.0
2018-Apr-25 05:58N 35°57' E 014°49'0 0.0
2018-Apr-25 05:28N 35°57' E 014°49'0 0.0
2018-Apr-25 04:58N 35°57' E 014°49'0 0.0
2018-Apr-25 04:28N 35°57' E 014°49'0 0.1
2018-Apr-25 03:58N 35°57' E 014°49'0 0.0
2018-Apr-25 03:28N 35°57' E 014°49'0 0.0
2018-Apr-25 02:58N 35°57' E 014°49'0 0.0
2018-Apr-25 02:28N 35°57' E 014°49'0 0.1
2018-Apr-25 01:58N 35°57' E 014°49'0 0.0
2018-Apr-25 01:28N 35°57' E 014°49'0 0.0
2018-Apr-25 00:58N 35°57' E 014°49'0 0.1
2018-Apr-25 00:28N 35°57' E 014°49'0 0.1
2018-Apr-24 23:58N 35°57' E 014°49'0 0.1
2018-Apr-24 23:28N 35°57' E 014°49'0 0.0
2018-Apr-24 22:58N 35°57' E 014°49'0 0.0
2018-Apr-24 22:31N 35°57' E 014°49'0 0.1
2018-Apr-24 22:01N 35°57' E 014°49'0 0.0
2018-Apr-24 21:30N 35°57' E 014°49'0 0.1
2018-Apr-24 20:57N 35°57' E 014°49'0 0.0
2018-Apr-24 20:30N 35°57' E 014°49'0 0.0
2018-Apr-24 20:00N 35°57' E 014°49'0 0.0
2018-Apr-24 19:30N 35°57' E 014°49'0 0.0
2018-Apr-24 19:00N 35°57' E 014°49'0 0.1
2018-Apr-24 18:18N 35°57' E 014°49'0 0.1
2018-Apr-24 17:57N 35°57' E 014°49'0 0.1
2018-Apr-24 17:21N 35°57' E 014°49'0 0.0
2018-Apr-24 17:00N 35°57' E 014°49'0 0.1
2018-Apr-24 16:30N 35°57' E 014°49'0 0.1
2018-Apr-24 16:00N 35°57' E 014°49'0 0.0
2018-Apr-24 15:30N 35°57' E 014°49'0 0.0
2018-Apr-24 15:00N 35°57' E 014°49'0 0.1
2018-Apr-24 14:30N 35°57' E 014°49'0 0.0
2018-Apr-24 14:00N 35°57' E 014°49'0 0.0
2018-Apr-24 13:30N 35°57' E 014°49'0 0.0
2018-Apr-24 13:00N 35°57' E 014°49'0 0.0
2018-Apr-24 12:29N 35°57' E 014°49'0 0.0
2018-Apr-24 11:53N 35°57' E 014°49'0 0.0
2018-Apr-24 11:26N 35°57' E 014°49'0 0.0
2018-Apr-24 10:59N 35°57' E 014°49'0 0.0
2018-Apr-24 10:17N 35°57' E 014°49'0 0.0
2018-Apr-24 07:11N 35°57' E 014°49'0 0.0
2018-Apr-24 06:56N 35°57' E 014°49'0 0.3
2018-Apr-24 06:29N 35°57' E 014°49'0 0.1
2018-Apr-24 05:56N 35°57' E 014°49'0 0.0
2018-Apr-24 00:56N 35°57' E 014°49'0 0.0
2018-Apr-24 00:29N 35°57' E 014°49'0 0.0
2018-Apr-23 23:59N 35°57' E 014°49'0 0.0
2018-Apr-23 23:29N 35°57' E 014°49'0 0.0
2018-Apr-23 21:38N 35°57' E 014°49'0 0.1
2018-Apr-23 21:29N 35°57' E 014°49'0 0.1
2018-Apr-23 20:59N 35°57' E 014°49'0 0.1
2018-Apr-23 20:29N 35°57' E 014°49'0 0.0
2018-Apr-23 15:14N 35°57' E 014°49'0 0.1
2018-Apr-23 14:50N 35°57' E 014°49'0 0.0
2018-Apr-23 14:26N 35°57' E 014°49'0 0.0
2018-Apr-23 13:59N 35°57' E 014°49'0 0.0
2018-Apr-23 13:26N 35°57' E 014°49'0 0.0
2018-Apr-23 12:59N 35°57' E 014°49'0 0.0
2018-Apr-23 12:29N 35°57' E 014°49'0 0.0
2018-Apr-23 11:59N 35°57' E 014°49'0 0.0
2018-Apr-23 08:02N 35°57' E 014°49'0 0.1
2018-Apr-23 07:59N 35°57' E 014°49'4 0.2
2018-Apr-22 08:14N 35°55' E 014°45'0 0.1
2018-Apr-22 07:12N 35°55' E 014°45'0 0.2
2018-Apr-22 06:54N 35°55' E 014°46'3 7.9
2018-Apr-22 06:30N 35°57' E 014°48'1 1.0
2018-Apr-22 05:59N 35°57' E 014°49'0 0.1
2018-Apr-22 05:21N 35°57' E 014°49'0 0.0
2018-Apr-22 01:25N 35°57' E 014°49'0 0.0
2018-Apr-22 00:55N 35°57' E 014°49'0 0.0
2018-Apr-22 00:30N 35°57' E 014°49'0 0.0
2018-Apr-21 23:56N 35°57' E 014°49'0 0.0
2018-Apr-21 23:30N 35°57' E 014°49'0 0.0
2018-Apr-21 22:30N 35°57' E 014°49'0 0.1
2018-Apr-21 21:55N 35°57' E 014°49'0 0.1
2018-Apr-21 21:30N 35°57' E 014°49'0 0.0
2018-Apr-21 20:52N 35°57' E 014°49'0 0.0
2018-Apr-21 20:29N 35°57' E 014°49'0 0.0
2018-Apr-21 18:43N 35°57' E 014°49'0 0.1
2018-Apr-21 18:24N 35°57' E 014°49'0 0.0
2018-Apr-21 17:51N 35°57' E 014°49'0 0.0
2018-Apr-21 17:30N 35°57' E 014°49'0 0.0
2018-Apr-21 16:58N 35°57' E 014°49'0 0.1
2018-Apr-21 15:15N 35°57' E 014°49'0 0.1
2018-Apr-21 15:00N 35°57' E 014°49'0 0.0
2018-Apr-21 14:28N 35°57' E 014°49'0 0.0
2018-Apr-21 12:27N 35°57' E 014°49'0 0.0
2018-Apr-21 11:59N 35°57' E 014°49'0 0.0
2018-Apr-21 11:29N 35°57' E 014°49'0 0.0
2018-Apr-21 09:57N 35°57' E 014°49'0 0.0
2018-Apr-21 09:27N 35°57' E 014°49'0 0.0
2018-Apr-21 08:59N 35°57' E 014°49'0 0.0
2018-Apr-21 06:26N 35°57' E 014°49'0 0.1
2018-Apr-21 03:59N 35°57' E 014°49'1 2.4
2018-Apr-21 03:28N 35°58' E 014°48'1 0.2
2018-Apr-20 23:03N 35°58' E 014°49'0 0.0
2018-Apr-20 22:56N 35°58' E 014°49'0 0.0
2018-Apr-20 22:30N 35°58' E 014°49'0 0.0
2018-Apr-20 21:59N 35°58' E 014°49'0 0.0
2018-Apr-20 21:31N 35°58' E 014°49'0 0.0
2018-Apr-20 20:56N 35°58' E 014°49'0 0.0
2018-Apr-20 20:29N 35°58' E 014°49'0 0.0
2018-Apr-20 19:38N 35°57' E 014°49'0 0.1
2018-Apr-20 19:25N 35°57' E 014°49'0 0.1
2018-Apr-20 18:55N 35°57' E 014°49'0 0.0
2018-Apr-20 18:30N 35°57' E 014°49'0 0.0
2018-Apr-20 17:56N 35°57' E 014°49'0 0.1
2018-Apr-20 17:26N 35°57' E 014°49'0 0.0
2018-Apr-20 07:22N 35°58' E 014°49'1 3.7
2018-Apr-20 07:00N 35°59' E 014°47'2 3.8
2018-Apr-20 06:29N 36°00' E 014°46'2 4.9
2018-Apr-20 06:00N 36°02' E 014°47'3 5.0
2018-Apr-20 05:29N 36°04' E 014°49'5 2.5
2018-Apr-20 03:18N 36°01' E 014°43'2 5.3
2018-Apr-20 02:58N 36°00' E 014°41'3 5.7
2018-Apr-20 02:30N 35°59' E 014°38'2 3.3
2018-Apr-20 01:58N 35°58' E 014°36'0 0.6
2018-Apr-20 01:29N 35°58' E 014°37'0 0.2
2018-Apr-20 00:18N 35°58' E 014°37'0 1.0
2018-Apr-19 23:56N 35°58' E 014°37'2 4.0
2018-Apr-19 23:30N 35°59' E 014°36'4 7.6
2018-Apr-19 23:00N 36°03' E 014°33'612.5
2018-Apr-19 22:30N 36°08' E 014°29'510.4
2018-Apr-19 22:00N 36°12' E 014°25'611.6
2018-Apr-19 21:30N 36°17' E 014°21'611.3
2018-Apr-19 21:00N 36°19' E 014°14'611.2
2018-Apr-19 20:30N 36°21' E 014°08'611.4
2018-Apr-19 19:59N 36°23' E 014°01'511.5
2018-Apr-19 19:30N 36°25' E 013°55'611.4
2018-Apr-19 19:00N 36°27' E 013°48'611.6
2018-Apr-19 18:28N 36°29' E 013°41'812.8
2018-Apr-19 17:51N 36°32' E 013°32'55811.7
2018-Apr-17 18:23N 43°09' E 005°02'512.2
2018-Apr-17 18:00N 43°14' E 004°60'611.7
2018-Apr-17 17:30N 43°19' E 004°58'2 3.7
2018-Apr-17 17:00N 43°21' E 004°57'0 0.0
2018-Apr-17 16:28N 43°21' E 004°57'0 0.0
2018-Apr-17 15:58N 43°21' E 004°57'0 0.0
2018-Apr-17 15:28N 43°21' E 004°57'0 0.0
2018-Apr-17 14:58N 43°21' E 004°57'0 0.0
2018-Apr-17 14:28N 43°21' E 004°57'0 0.0
2018-Apr-17 13:58N 43°21' E 004°57'0 0.0
2018-Apr-17 13:28N 43°21' E 004°57'0 0.0
2018-Apr-17 12:58N 43°21' E 004°57'0 0.0
2018-Apr-17 12:28N 43°21' E 004°57'0 0.0
2018-Apr-17 11:58N 43°21' E 004°57'0 0.0
2018-Apr-17 11:28N 43°21' E 004°57'0 0.0
2018-Apr-17 10:58N 43°21' E 004°57'0 0.0
2018-Apr-17 10:28N 43°21' E 004°57'0 0.0
2018-Apr-17 09:55N 43°21' E 004°57'0 0.1
2018-Apr-17 09:28N 43°21' E 004°57'0 0.1
2018-Apr-17 08:58N 43°21' E 004°57'0 0.1
2018-Apr-17 08:25N 43°21' E 004°57'0 0.1
2018-Apr-17 07:58N 43°21' E 004°57'0 0.1
2018-Apr-17 07:28N 43°21' E 004°57'0 0.0
2018-Apr-17 06:58N 43°21' E 004°57'0 0.0
2018-Apr-17 06:28N 43°21' E 004°57'0 0.0
2018-Apr-17 05:58N 43°21' E 004°57'0 0.0
2018-Apr-17 05:28N 43°21' E 004°57'0 0.0
2018-Apr-17 04:58N 43°21' E 004°57'0 0.0
2018-Apr-17 04:28N 43°21' E 004°57'0 0.0
2018-Apr-17 03:58N 43°21' E 004°57'0 0.0
2018-Apr-17 03:28N 43°21' E 004°57'0 0.0
2018-Apr-17 02:58N 43°21' E 004°57'0 0.0
2018-Apr-17 02:28N 43°21' E 004°57'0 0.0
2018-Apr-17 01:58N 43°21' E 004°57'0 0.1
2018-Apr-17 01:28N 43°21' E 004°57'0 0.0
2018-Apr-17 00:58N 43°21' E 004°57'0 0.0
2018-Apr-17 00:28N 43°21' E 004°57'0 0.0
2018-Apr-16 23:58N 43°21' E 004°57'0 0.0
2018-Apr-16 23:28N 43°21' E 004°57'0 0.0
2018-Apr-16 22:58N 43°21' E 004°57'0 0.0
2018-Apr-16 22:28N 43°21' E 004°57'0 0.0
2018-Apr-16 21:58N 43°21' E 004°57'0 0.0
2018-Apr-16 21:28N 43°21' E 004°57'0 0.0
2018-Apr-16 20:58N 43°21' E 004°57'0 0.1
2018-Apr-16 20:16N 43°21' E 004°57'0 0.1
2018-Apr-16 19:58N 43°21' E 004°57'0 0.0
2018-Apr-16 19:28N 43°21' E 004°57'0 0.0
2018-Apr-16 18:58N 43°21' E 004°57'0 0.0
2018-Apr-16 18:28N 43°21' E 004°57'0 0.0
2018-Apr-16 17:31N 43°21' E 004°57'0 0.1
2018-Apr-16 17:07N 43°21' E 004°57'0 0.0
2018-Apr-16 16:19N 43°21' E 004°57'0 0.1
2018-Apr-16 15:58N 43°21' E 004°57'0 0.0
2018-Apr-16 15:28N 43°21' E 004°57'0 0.1
2018-Apr-16 14:58N 43°21' E 004°57'0 0.1
2018-Apr-16 14:28N 43°21' E 004°57'0 0.0
2018-Apr-16 13:58N 43°21' E 004°57'0 0.0
2018-Apr-16 13:25N 43°21' E 004°57'0 0.1
2018-Apr-16 12:55N 43°21' E 004°57'0 0.0
2018-Apr-16 12:28N 43°21' E 004°57'0 0.0
2018-Apr-16 11:58N 43°21' E 004°57'0 0.0
2018-Apr-16 11:28N 43°21' E 004°57'0 0.0
2018-Apr-16 10:58N 43°21' E 004°57'0 0.1
2018-Apr-16 10:28N 43°21' E 004°57'0 0.0
2018-Apr-16 09:58N 43°21' E 004°57'0 0.0
2018-Apr-16 09:28N 43°21' E 004°57'0 0.0
2018-Apr-16 08:58N 43°21' E 004°57'0 0.1
2018-Apr-16 08:28N 43°21' E 004°57'0 0.0
2018-Apr-16 07:58N 43°21' E 004°57'0 0.0
2018-Apr-16 07:28N 43°21' E 004°57'0 0.0
2018-Apr-16 06:55N 43°21' E 004°57'0 0.0
2018-Apr-16 06:28N 43°21' E 004°57'0 0.0
2018-Apr-16 06:01N 43°21' E 004°57'0 0.0
2018-Apr-16 05:27N 43°21' E 004°57'0 0.0
2018-Apr-16 04:57N 43°21' E 004°57'0 0.0
2018-Apr-16 04:30N 43°21' E 004°57'0 0.0
2018-Apr-16 04:00N 43°21' E 004°57'0 0.0
2018-Apr-16 03:30N 43°21' E 004°57'0 0.0
2018-Apr-16 03:00N 43°21' E 004°57'0 0.0
2018-Apr-16 02:30N 43°21' E 004°57'0 0.1
2018-Apr-16 01:54N 43°21' E 004°57'0 0.1
2018-Apr-16 01:30N 43°21' E 004°57'0 0.0
2018-Apr-16 01:00N 43°21' E 004°57'0 0.0
2018-Apr-16 00:30N 43°21' E 004°57'0 0.0
2018-Apr-16 00:00N 43°21' E 004°57'  
Track history (hours):
 
Tides and Currents Weather Stations Pressure Air Temp Water Temp Dewpoint Dewpoint Depression Visibility Wind Speed Wind Dir Waves Ship Positions

Handytankers Glory

Last reported at 2018-Apr-26 00:00 UTC. Time now 2018-Apr-26 00:20 UTC.
Position N 36°25' E 014°00'.

Length 171 m; draft 7.2 m.

Type: Tanker. MMSI: 309553000.

Date/timePositionNaut miles runAvg speedWind from/ knotsBaromVisibWave heightAir tempDewpointWater temp
2018-Apr-26 00:00N 36°25' E 014°00'4 8.1
2018-Apr-25 23:30N 36°23' E 014°05'4 8.2
2018-Apr-25 23:00N 36°22' E 014°09'4 8.0
2018-Apr-25 22:31N 36°20' E 014°14'4 8.1
2018-Apr-25 22:00N 36°18' E 014°18'4 8.2
2018-Apr-25 21:31N 36°17' E 014°23'4 8.2
2018-Apr-25 21:01N 36°15' E 014°28'4 8.0
2018-Apr-25 20:31N 36°13' E 014°32'4 8.1
2018-Apr-25 20:00N 36°10' E 014°35'4 7.9
2018-Apr-25 19:30N 36°07' E 014°39'4 8.0
2018-Apr-25 19:00N 36°04' E 014°42'4 7.8
2018-Apr-25 18:30N 36°01' E 014°46'4 7.7
2018-Apr-25 17:58N 35°58' E 014°48'1 2.1
2018-Apr-25 17:28N 35°57' E 014°49'0 0.1
2018-Apr-25 16:58N 35°57' E 014°49'0 0.0
2018-Apr-25 16:28N 35°57' E 014°49'0 0.0
2018-Apr-25 15:58N 35°57' E 014°49'0 0.0
2018-Apr-25 15:28N 35°57' E 014°49'0 0.0
2018-Apr-25 14:37N 35°57' E 014°49'0 0.0
2018-Apr-25 13:58N 35°57' E 014°49'0 0.1
2018-Apr-25 13:28N 35°57' E 014°49'0 0.0
2018-Apr-25 12:58N 35°57' E 014°49'0 0.0
2018-Apr-25 12:28N 35°57' E 014°49'0 0.0
2018-Apr-25 11:58N 35°57' E 014°49'0 0.0
2018-Apr-25 11:28N 35°57' E 014°49'0 0.0
2018-Apr-25 10:58N 35°57' E 014°49'0 0.0
2018-Apr-25 10:16N 35°57' E 014°49'0 0.0
2018-Apr-25 09:58N 35°57' E 014°49'0 0.0
2018-Apr-25 09:28N 35°57' E 014°49'0 0.0
2018-Apr-25 08:58N 35°57' E 014°49'0 0.0
2018-Apr-25 08:28N 35°57' E 014°49'0 0.0
2018-Apr-25 07:58N 35°57' E 014°49'0 0.0
2018-Apr-25 07:28N 35°57' E 014°49'0 0.1
2018-Apr-25 06:58N 35°57' E 014°49'0 0.1
2018-Apr-25 06:28N 35°57' E 014°49'0 0.0
2018-Apr-25 05:58N 35°57' E 014°49'0 0.0
2018-Apr-25 05:28N 35°57' E 014°49'0 0.0
2018-Apr-25 04:58N 35°57' E 014°49'0 0.0
2018-Apr-25 04:28N 35°57' E 014°49'0 0.1
2018-Apr-25 03:58N 35°57' E 014°49'0 0.0
2018-Apr-25 03:28N 35°57' E 014°49'0 0.0
2018-Apr-25 02:58N 35°57' E 014°49'0 0.0
2018-Apr-25 02:28N 35°57' E 014°49'0 0.1
2018-Apr-25 01:58N 35°57' E 014°49'0 0.0
2018-Apr-25 01:28N 35°57' E 014°49'0 0.0
2018-Apr-25 00:58N 35°57' E 014°49'0 0.1
2018-Apr-25 00:28N 35°57' E 014°49'0 0.1
2018-Apr-24 23:58N 35°57' E 014°49'0 0.1
2018-Apr-24 23:28N 35°57' E 014°49'0 0.0
2018-Apr-24 22:58N 35°57' E 014°49'0 0.0
2018-Apr-24 22:31N 35°57' E 014°49'0 0.1
2018-Apr-24 22:01N 35°57' E 014°49'0 0.0
2018-Apr-24 21:30N 35°57' E 014°49'0 0.1
2018-Apr-24 20:57N 35°57' E 014°49'0 0.0
2018-Apr-24 20:30N 35°57' E 014°49'0 0.0
2018-Apr-24 20:00N 35°57' E 014°49'0 0.0
2018-Apr-24 19:30N 35°57' E 014°49'0 0.0
2018-Apr-24 19:00N 35°57' E 014°49'0 0.1
2018-Apr-24 18:18N 35°57' E 014°49'0 0.1
2018-Apr-24 17:57N 35°57' E 014°49'0 0.1
2018-Apr-24 17:21N 35°57' E 014°49'0 0.0
2018-Apr-24 17:00N 35°57' E 014°49'0 0.1
2018-Apr-24 16:30N 35°57' E 014°49'0 0.1
2018-Apr-24 16:00N 35°57' E 014°49'0 0.0
2018-Apr-24 15:30N 35°57' E 014°49'0 0.0
2018-Apr-24 15:00N 35°57' E 014°49'0 0.1
2018-Apr-24 14:30N 35°57' E 014°49'0 0.0
2018-Apr-24 14:00N 35°57' E 014°49'0 0.0
2018-Apr-24 13:30N 35°57' E 014°49'0 0.0
2018-Apr-24 13:00N 35°57' E 014°49'0 0.0
2018-Apr-24 12:29N 35°57' E 014°49'0 0.0
2018-Apr-24 11:53N 35°57' E 014°49'0 0.0
2018-Apr-24 11:26N 35°57' E 014°49'0 0.0
2018-Apr-24 10:59N 35°57' E 014°49'0 0.0
2018-Apr-24 10:17N 35°57' E 014°49'0 0.0
2018-Apr-24 07:11N 35°57' E 014°49'0 0.0
2018-Apr-24 06:56N 35°57' E 014°49'0 0.3
2018-Apr-24 06:29N 35°57' E 014°49'0 0.1
2018-Apr-24 05:56N 35°57' E 014°49'0 0.0
2018-Apr-24 00:56N 35°57' E 014°49'0 0.0
2018-Apr-24 00:29N 35°57' E 014°49'0 0.0
2018-Apr-23 23:59N 35°57' E 014°49'0 0.0
2018-Apr-23 23:29N 35°57' E 014°49'0 0.0
2018-Apr-23 21:38N 35°57' E 014°49'0 0.1
2018-Apr-23 21:29N 35°57' E 014°49'0 0.1
2018-Apr-23 20:59N 35°57' E 014°49'0 0.1
2018-Apr-23 20:29N 35°57' E 014°49'0 0.0
2018-Apr-23 15:14N 35°57' E 014°49'0 0.1
2018-Apr-23 14:50N 35°57' E 014°49'0 0.0
2018-Apr-23 14:26N 35°57' E 014°49'0 0.0
2018-Apr-23 13:59N 35°57' E 014°49'0 0.0
2018-Apr-23 13:26N 35°57' E 014°49'0 0.0
2018-Apr-23 12:59N 35°57' E 014°49'0 0.0
2018-Apr-23 12:29N 35°57' E 014°49'0 0.0
2018-Apr-23 11:59N 35°57' E 014°49'0 0.0
2018-Apr-23 08:02N 35°57' E 014°49'0 0.1
2018-Apr-23 07:59N 35°57' E 014°49'4 0.2
2018-Apr-22 08:14N 35°55' E 014°45'0 0.1
2018-Apr-22 07:12N 35°55' E 014°45'0 0.2
2018-Apr-22 06:54N 35°55' E 014°46'3 7.9
2018-Apr-22 06:30N 35°57' E 014°48'1 1.0
2018-Apr-22 05:59N 35°57' E 014°49'0 0.1
2018-Apr-22 05:21N 35°57' E 014°49'0 0.0
2018-Apr-22 01:25N 35°57' E 014°49'0 0.0
2018-Apr-22 00:55N 35°57' E 014°49'0 0.0
2018-Apr-22 00:30N 35°57' E 014°49'0 0.0
2018-Apr-21 23:56N 35°57' E 014°49'0 0.0
2018-Apr-21 23:30N 35°57' E 014°49'0 0.0
2018-Apr-21 22:30N 35°57' E 014°49'0 0.1
2018-Apr-21 21:55N 35°57' E 014°49'0 0.1
2018-Apr-21 21:30N 35°57' E 014°49'0 0.0
2018-Apr-21 20:52N 35°57' E 014°49'0 0.0
2018-Apr-21 20:29N 35°57' E 014°49'0 0.0
2018-Apr-21 18:43N 35°57' E 014°49'0 0.1
2018-Apr-21 18:24N 35°57' E 014°49'0 0.0
2018-Apr-21 17:51N 35°57' E 014°49'0 0.0
2018-Apr-21 17:30N 35°57' E 014°49'0 0.0
2018-Apr-21 16:58N 35°57' E 014°49'0 0.1
2018-Apr-21 15:15N 35°57' E 014°49'0 0.1
2018-Apr-21 15:00N 35°57' E 014°49'0 0.0
2018-Apr-21 14:28N 35°57' E 014°49'0 0.0
2018-Apr-21 12:27N 35°57' E 014°49'0 0.0
2018-Apr-21 11:59N 35°57' E 014°49'0 0.0
2018-Apr-21 11:29N 35°57' E 014°49'0 0.0
2018-Apr-21 09:57N 35°57' E 014°49'0 0.0
2018-Apr-21 09:27N 35°57' E 014°49'0 0.0
2018-Apr-21 08:59N 35°57' E 014°49'0 0.0
2018-Apr-21 06:26N 35°57' E 014°49'0 0.1
2018-Apr-21 03:59N 35°57' E 014°49'1 2.4
2018-Apr-21 03:28N 35°58' E 014°48'1 0.2
2018-Apr-20 23:03N 35°58' E 014°49'0 0.0
2018-Apr-20 22:56N 35°58' E 014°49'0 0.0
2018-Apr-20 22:30N 35°58' E 014°49'0 0.0
2018-Apr-20 21:59N 35°58' E 014°49'0 0.0
2018-Apr-20 21:31N 35°58' E 014°49'0 0.0
2018-Apr-20 20:56N 35°58' E 014°49'0 0.0
2018-Apr-20 20:29N 35°58' E 014°49'0 0.0
2018-Apr-20 19:38N 35°57' E 014°49'0 0.1
2018-Apr-20 19:25N 35°57' E 014°49'0 0.1
2018-Apr-20 18:55N 35°57' E 014°49'0 0.0
2018-Apr-20 18:30N 35°57' E 014°49'0 0.0
2018-Apr-20 17:56N 35°57' E 014°49'0 0.1
2018-Apr-20 17:26N 35°57' E 014°49'0 0.0
2018-Apr-20 07:22N 35°58' E 014°49'1 3.7
2018-Apr-20 07:00N 35°59' E 014°47'2 3.8
2018-Apr-20 06:29N 36°00' E 014°46'2 4.9
2018-Apr-20 06:00N 36°02' E 014°47'3 5.0
2018-Apr-20 05:29N 36°04' E 014°49'5 2.5
2018-Apr-20 03:18N 36°01' E 014°43'2 5.3
2018-Apr-20 02:58N 36°00' E 014°41'3 5.7
2018-Apr-20 02:30N 35°59' E 014°38'2 3.3
2018-Apr-20 01:58N 35°58' E 014°36'0 0.6
2018-Apr-20 01:29N 35°58' E 014°37'0 0.2
2018-Apr-20 00:18N 35°58' E 014°37'0 1.0
2018-Apr-19 23:56N 35°58' E 014°37'2 4.0
2018-Apr-19 23:30N 35°59' E 014°36'4 7.6
2018-Apr-19 23:00N 36°03' E 014°33'612.5
2018-Apr-19 22:30N 36°08' E 014°29'510.4
2018-Apr-19 22:00N 36°12' E 014°25'611.6
2018-Apr-19 21:30N 36°17' E 014°21'611.3
2018-Apr-19 21:00N 36°19' E 014°14'611.2
2018-Apr-19 20:30N 36°21' E 014°08'611.4
2018-Apr-19 19:59N 36°23' E 014°01'511.5
2018-Apr-19 19:30N 36°25' E 013°55'611.4
2018-Apr-19 19:00N 36°27' E 013°48'611.6
2018-Apr-19 18:28N 36°29' E 013°41'812.8
2018-Apr-19 17:51N 36°32' E 013°32'55811.7
2018-Apr-17 18:23N 43°09' E 005°02'512.2
2018-Apr-17 18:00N 43°14' E 004°60'611.7
2018-Apr-17 17:30N 43°19' E 004°58'2 3.7
2018-Apr-17 17:00N 43°21' E 004°57'0 0.0
2018-Apr-17 16:28N 43°21' E 004°57'0 0.0
2018-Apr-17 15:58N 43°21' E 004°57'0 0.0
2018-Apr-17 15:28N 43°21' E 004°57'0 0.0
2018-Apr-17 14:58N 43°21' E 004°57'0 0.0
2018-Apr-17 14:28N 43°21' E 004°57'0 0.0
2018-Apr-17 13:58N 43°21' E 004°57'0 0.0
2018-Apr-17 13:28N 43°21' E 004°57'0 0.0
2018-Apr-17 12:58N 43°21' E 004°57'0 0.0
2018-Apr-17 12:28N 43°21' E 004°57'0 0.0
2018-Apr-17 11:58N 43°21' E 004°57'0 0.0
2018-Apr-17 11:28N 43°21' E 004°57'0 0.0
2018-Apr-17 10:58N 43°21' E 004°57'0 0.0
2018-Apr-17 10:28N 43°21' E 004°57'0 0.0
2018-Apr-17 09:55N 43°21' E 004°57'0 0.1
2018-Apr-17 09:28N 43°21' E 004°57'0 0.1
2018-Apr-17 08:58N 43°21' E 004°57'0 0.1
2018-Apr-17 08:25N 43°21' E 004°57'0 0.1
2018-Apr-17 07:58N 43°21' E 004°57'0 0.1
2018-Apr-17 07:28N 43°21' E 004°57'0 0.0
2018-Apr-17 06:58N 43°21' E 004°57'0 0.0
2018-Apr-17 06:28N 43°21' E 004°57'0 0.0
2018-Apr-17 05:58N 43°21' E 004°57'0 0.0
2018-Apr-17 05:28N 43°21' E 004°57'0 0.0
2018-Apr-17 04:58N 43°21' E 004°57'0 0.0
2018-Apr-17 04:28N 43°21' E 004°57'0 0.0
2018-Apr-17 03:58N 43°21' E 004°57'0 0.0
2018-Apr-17 03:28N 43°21' E 004°57'0 0.0
2018-Apr-17 02:58N 43°21' E 004°57'0 0.0
2018-Apr-17 02:28N 43°21' E 004°57'0 0.0
2018-Apr-17 01:58N 43°21' E 004°57'0 0.1
2018-Apr-17 01:28N 43°21' E 004°57'0 0.0
2018-Apr-17 00:58N 43°21' E 004°57'0 0.0
2018-Apr-17 00:28N 43°21' E 004°57'0 0.0
2018-Apr-16 23:58N 43°21' E 004°57'0 0.0
2018-Apr-16 23:28N 43°21' E 004°57'0 0.0
2018-Apr-16 22:58N 43°21' E 004°57'0 0.0
2018-Apr-16 22:28N 43°21' E 004°57'0 0.0
2018-Apr-16 21:58N 43°21' E 004°57'0 0.0
2018-Apr-16 21:28N 43°21' E 004°57'0 0.0
2018-Apr-16 20:58N 43°21' E 004°57'0 0.1
2018-Apr-16 20:16N 43°21' E 004°57'0 0.1
2018-Apr-16 19:58N 43°21' E 004°57'0 0.0
2018-Apr-16 19:28N 43°21' E 004°57'0 0.0
2018-Apr-16 18:58N 43°21' E 004°57'0 0.0
2018-Apr-16 18:28N 43°21' E 004°57'0 0.0
2018-Apr-16 17:31N 43°21' E 004°57'0 0.1
2018-Apr-16 17:07N 43°21' E 004°57'0 0.0
2018-Apr-16 16:19N 43°21' E 004°57'0 0.1
2018-Apr-16 15:58N 43°21' E 004°57'0 0.0
2018-Apr-16 15:28N 43°21' E 004°57'0 0.1
2018-Apr-16 14:58N 43°21' E 004°57'0 0.1
2018-Apr-16 14:28N 43°21' E 004°57'0 0.0
2018-Apr-16 13:58N 43°21' E 004°57'0 0.0
2018-Apr-16 13:25N 43°21' E 004°57'0 0.1
2018-Apr-16 12:55N 43°21' E 004°57'0 0.0
2018-Apr-16 12:28N 43°21' E 004°57'0 0.0
2018-Apr-16 11:58N 43°21' E 004°57'0 0.0
2018-Apr-16 11:28N 43°21' E 004°57'0 0.0
2018-Apr-16 10:58N 43°21' E 004°57'0 0.1
2018-Apr-16 10:28N 43°21' E 004°57'0 0.0
2018-Apr-16 09:58N 43°21' E 004°57'0 0.0
2018-Apr-16 09:28N 43°21' E 004°57'0 0.0
2018-Apr-16 08:58N 43°21' E 004°57'0 0.1
2018-Apr-16 08:28N 43°21' E 004°57'0 0.0
2018-Apr-16 07:58N 43°21' E 004°57'0 0.0
2018-Apr-16 07:28N 43°21' E 004°57'0 0.0
2018-Apr-16 06:55N 43°21' E 004°57'0 0.0
2018-Apr-16 06:28N 43°21' E 004°57'0 0.0
2018-Apr-16 06:01N 43°21' E 004°57'0 0.0
2018-Apr-16 05:27N 43°21' E 004°57'0 0.0
2018-Apr-16 04:57N 43°21' E 004°57'0 0.0
2018-Apr-16 04:30N 43°21' E 004°57'0 0.0
2018-Apr-16 04:00N 43°21' E 004°57'0 0.0
2018-Apr-16 03:30N 43°21' E 004°57'0 0.0
2018-Apr-16 03:00N 43°21' E 004°57'0 0.0
2018-Apr-16 02:30N 43°21' E 004°57'0 0.1
2018-Apr-16 01:54N 43°21' E 004°57'0 0.1
2018-Apr-16 01:30N 43°21' E 004°57'0 0.0
2018-Apr-16 01:00N 43°21' E 004°57'0 0.0
2018-Apr-16 00:30N 43°21' E 004°57'0 0.0
2018-Apr-16 00:00N 43°21' E 004°57'  

Dump ship's entire track history